Time;durP1;ratioP1;P1;durP2;ratioP2;P2;SDS_P1;SDS_P2;PMS_P1;PMS_P2;Temp;Humidity;BMP_temperature;BMP_pressure;BME280_temperature;BME280_humidity;BME280_pressure;Samples;Min_cycle;Max_cycle;Signal;HPM_P1;HPM_P2
2024/02/14 00:01:36;;;;;;;;;4.67;4.33;;;;;;;;5086535;27;45624;-75
2024/02/14 00:04:02;;;;;;;;;4.25;4.25;;;;;;;;5080509;27;45393;-74
2024/02/14 00:06:27;;;;;;;;;4.75;4.75;;;;;;;;5077435;27;47129;-75
2024/02/14 00:08:52;;;;;;;;;5.00;5.00;;;;;;;;5080556;27;45412;-74
2024/02/14 00:11:17;;;;;;;;;6.00;6.00;;;;;;;;5080097;27;45783;-75
2024/02/14 00:13:43;;;;;;;;;6.00;6.00;;;;;;;;5080662;27;45880;-74
2024/02/14 00:16:08;;;;;;;;;5.00;4.00;;;;;;;;5079715;27;45491;-74
2024/02/14 00:18:33;;;;;;;;;5.75;4.00;;;;;;;;5080718;27;45221;-74
2024/02/14 00:20:58;;;;;;;;;2.75;2.75;;;;;;;;5078972;28;45389;-74
2024/02/14 00:23:24;;;;;;;;;5.00;4.00;;;;;;;;5076477;27;45639;-75
2024/02/14 00:25:49;;;;;;;;;4.75;4.75;;;;;;;;5079218;27;45672;-74
2024/02/14 00:28:14;;;;;;;;;4.00;4.00;;;;;;;;5079687;27;45632;-74
2024/02/14 00:30:39;;;;;;;;;5.67;5.00;;;;;;;;5080800;27;45701;-74
2024/02/14 00:33:05;;;;;;;;;5.00;5.00;;;;;;;;5083289;27;45469;-74
2024/02/14 00:35:30;;;;;;;;;9.00;5.00;;;;;;;;5077764;27;46302;-74
2024/02/14 00:37:56;;;;;;;;;5.00;5.00;;;;;;;;5078951;27;45288;-74
2024/02/14 00:40:21;;;;;;;;;5.67;5.67;;;;;;;;5079869;27;45350;-74
2024/02/14 00:42:46;;;;;;;;;7.00;5.00;;;;;;;;5080078;27;45410;-74
2024/02/14 00:45:12;;;;;;;;;6.33;6.00;;;;;;;;5078594;27;47645;-74
2024/02/14 00:47:37;;;;;;;;;5.75;5.75;;;;;;;;5078456;27;45409;-74
2024/02/14 00:50:02;;;;;;;;;5.00;4.00;;;;;;;;5079475;27;45456;-74
2024/02/14 00:52:28;;;;;;;;;4.75;4.25;;;;;;;;5077897;27;45348;-73
2024/02/14 00:54:53;;;;;;;;;5.50;5.50;;;;;;;;5076636;27;45632;-74
2024/02/14 00:57:19;;;;;;;;;4.00;4.00;;;;;;;;5079252;27;45469;-74
2024/02/14 00:59:44;;;;;;;;;5.50;5.50;;;;;;;;5079969;27;45461;-74
2024/02/14 01:02:09;;;;;;;;;4.00;3.00;;;;;;;;5078665;27;45407;-74
2024/02/14 01:04:37;;;;;;;;;11.75;6.50;;;;;;;;5075904;27;45994;-74
2024/02/14 01:07:03;;;;;;;;;6.00;6.00;;;;;;;;5077971;27;45553;-74
2024/02/14 01:09:28;;;;;;;;;2.00;1.00;;;;;;;;5080054;27;45386;-74
2024/02/14 01:11:53;;;;;;;;;8.00;7.00;;;;;;;;5075227;27;45469;-74
2024/02/14 01:14:19;;;;;;;;;7.00;6.00;;;;;;;;5079527;27;46004;-74
2024/02/14 01:16:44;;;;;;;;;4.00;3.67;;;;;;;;5078601;27;45469;-74
2024/02/14 01:19:10;;;;;;;;;6.50;6.00;;;;;;;;5079516;27;45455;-74
2024/02/14 01:21:35;;;;;;;;;5.00;5.00;;;;;;;;5079404;28;45375;-74
2024/02/14 01:24:00;;;;;;;;;10.67;6.67;;;;;;;;5077662;27;45524;-74
2024/02/14 01:26:26;;;;;;;;;5.75;5.75;;;;;;;;5077193;27;45509;-74
2024/02/14 01:28:51;;;;;;;;;5.00;5.00;;;;;;;;5080476;27;45552;-74
2024/02/14 01:31:16;;;;;;;;;8.00;8.00;;;;;;;;5084051;27;45289;-74
2024/02/14 01:33:41;;;;;;;;;5.33;5.00;;;;;;;;5079801;27;45505;-74
2024/02/14 01:36:07;;;;;;;;;6.33;6.00;;;;;;;;5074640;27;45746;-74
2024/02/14 01:38:35;;;;;;;;;8.75;7.00;;;;;;;;5078980;27;45502;-74
2024/02/14 01:41:00;;;;;;;;;7.00;6.00;;;;;;;;5079043;27;45502;-74
2024/02/14 01:43:25;;;;;;;;;8.00;6.67;;;;;;;;5078947;27;45494;-74
2024/02/14 01:45:51;;;;;;;;;9.67;7.00;;;;;;;;5079004;27;45616;-74
2024/02/14 01:48:18;;;;;;;;;9.00;7.75;;;;;;;;5079423;27;45404;-74
2024/02/14 01:50:44;;;;;;;;;6.00;6.00;;;;;;;;5080794;27;45623;-74
2024/02/14 01:53:09;;;;;;;;;11.50;7.50;;;;;;;;5078393;27;47215;-74
2024/02/14 01:55:34;;;;;;;;;11.00;11.00;;;;;;;;5077317;27;45573;-74
2024/02/14 01:58:00;;;;;;;;;7.00;6.00;;;;;;;;5077079;27;45307;-74
2024/02/14 02:00:25;;;;;;;;;7.00;6.75;;;;;;;;5078955;27;45292;-74
2024/02/14 02:02:51;;;;;;;;;7.50;7.00;;;;;;;;5078775;27;45915;-74
2024/02/14 02:05:16;;;;;;;;;8.50;8.25;;;;;;;;5078108;27;45356;-74
2024/02/14 02:07:43;;;;;;;;;7.00;7.00;;;;;;;;5079395;27;45499;-74
2024/02/14 02:10:10;;;;;;;;;6.50;5.00;;;;;;;;5077949;27;45542;-74
2024/02/14 02:12:38;;;;;;;;;8.75;7.00;;;;;;;;5078227;27;45493;-74
2024/02/14 02:15:03;;;;;;;;;7.50;7.00;;;;;;;;5078689;28;45477;-74
2024/02/14 02:17:29;;;;;;;;;7.75;6.75;;;;;;;;5076055;27;45459;-74
2024/02/14 02:19:54;;;;;;;;;7.00;7.00;;;;;;;;5079131;27;45240;-74
2024/02/14 02:22:19;;;;;;;;;6.00;6.00;;;;;;;;5076352;27;45654;-74
2024/02/14 02:24:45;;;;;;;;;6.67;6.00;;;;;;;;5069804;27;45477;-74
2024/02/14 02:27:10;;;;;;;;;7.25;6.75;;;;;;;;5078362;28;45500;-74
2024/02/14 02:29:37;;;;;;;;;8.00;7.00;;;;;;;;5077352;27;45651;-74
2024/02/14 02:32:05;;;;;;;;;7.00;6.00;;;;;;;;5078255;27;46334;-74
2024/02/14 02:34:30;;;;;;;;;7.25;7.00;;;;;;;;5073527;27;45626;-73
2024/02/14 02:36:57;;;;;;;;;8.00;7.67;;;;;;;;5076867;28;45901;-73
2024/02/14 02:39:22;;;;;;;;;7.25;7.25;;;;;;;;5078785;27;45365;-73
2024/02/14 02:41:48;;;;;;;;;8.00;6.00;;;;;;;;5080051;27;47269;-74
2024/02/14 02:44:13;;;;;;;;;9.25;6.25;;;;;;;;5078158;27;45453;-74
2024/02/14 02:46:39;;;;;;;;;7.00;5.00;;;;;;;;5078220;27;45596;-74
2024/02/14 02:49:04;;;;;;;;;7.67;7.67;;;;;;;;5078296;27;45348;-74
2024/02/14 02:51:29;;;;;;;;;8.50;7.00;;;;;;;;5077838;27;45480;-74
2024/02/14 02:53:55;;;;;;;;;5.25;5.25;;;;;;;;5076295;27;45550;-73
2024/02/14 02:56:21;;;;;;;;;7.00;6.00;;;;;;;;5075212;28;45473;-74
2024/02/14 02:58:48;;;;;;;;;8.25;7.75;;;;;;;;5078386;27;45397;-74
2024/02/14 03:01:13;;;;;;;;;8.00;6.75;;;;;;;;5080058;27;47502;-74
2024/02/14 03:03:38;;;;;;;;;7.00;6.00;;;;;;;;5077844;27;45726;-74
2024/02/14 03:06:04;;;;;;;;;7.67;7.67;;;;;;;;5077264;27;45647;-74
2024/02/14 03:08:30;;;;;;;;;8.25;8.25;;;;;;;;5076733;27;46209;-74
2024/02/14 03:10:55;;;;;;;;;9.00;7.75;;;;;;;;5077279;28;45901;-74
2024/02/14 03:13:21;;;;;;;;;6.75;6.00;;;;;;;;5057019;28;45394;-74
2024/02/14 03:15:48;;;;;;;;;11.00;8.50;;;;;;;;5074631;27;45290;-74
2024/02/14 03:18:13;;;;;;;;;9.00;6.25;;;;;;;;5077197;27;45750;-74
2024/02/14 03:20:38;;;;;;;;;12.33;9.33;;;;;;;;5077796;28;45490;-74
2024/02/14 03:23:03;;;;;;;;;11.00;10.67;;;;;;;;5077796;27;45334;-74
2024/02/14 03:25:29;;;;;;;;;8.00;8.00;;;;;;;;5078153;28;45309;-74
2024/02/14 03:27:56;;;;;;;;;9.75;9.75;;;;;;;;5082204;27;45365;-74
2024/02/14 03:30:22;;;;;;;;;12.00;11.25;;;;;;;;5078820;27;46161;-74
2024/02/14 03:32:47;;;;;;;;;11.25;8.50;;;;;;;;5076329;27;45681;-74
2024/02/14 03:35:16;;;;;;;;;10.67;8.00;;;;;;;;5072461;27;45382;-74
2024/02/14 03:37:42;;;;;;;;;11.00;11.00;;;;;;;;5077388;27;45453;-74
2024/02/14 03:40:07;;;;;;;;;9.25;9.25;;;;;;;;5078506;27;47390;-74
2024/02/14 03:42:34;;;;;;;;;8.00;8.00;;;;;;;;5080195;27;45442;-74
2024/02/14 03:45:02;;;;;;;;;11.25;9.50;;;;;;;;5081196;27;45416;-74
2024/02/14 03:47:34;;;;;;;;;8.00;8.00;;;;;;;;5080556;27;45559;-74
2024/02/14 03:49:59;;;;;;;;;10.75;8.75;;;;;;;;5078482;27;45451;-74
2024/02/14 03:52:25;;;;;;;;;7.00;7.00;;;;;;;;5080754;27;45711;-74
2024/02/14 03:54:50;;;;;;;;;11.50;10.00;;;;;;;;5081039;27;45488;-74
2024/02/14 03:57:15;;;;;;;;;8.75;6.75;;;;;;;;5080471;27;45374;-74
2024/02/14 03:59:41;;;;;;;;;11.33;8.67;;;;;;;;5082882;27;45401;-74
2024/02/14 04:02:09;;;;;;;;;11.33;11.00;;;;;;;;5080835;27;45291;-74
2024/02/14 04:04:36;;;;;;;;;7.50;7.50;;;;;;;;5079322;27;45451;-74
2024/02/14 04:07:01;;;;;;;;;11.75;10.00;;;;;;;;5078893;27;45440;-74
2024/02/14 04:09:26;;;;;;;;;8.25;7.00;;;;;;;;5080599;27;46285;-74
2024/02/14 04:11:51;;;;;;;;;12.33;10.33;;;;;;;;5078691;27;45405;-74
2024/02/14 04:14:17;;;;;;;;;11.00;8.67;;;;;;;;5080618;27;45564;-74
2024/02/14 04:16:42;;;;;;;;;10.00;8.67;;;;;;;;5079928;27;45399;-74
2024/02/14 04:19:08;;;;;;;;;6.00;6.00;;;;;;;;5080078;27;45565;-73
2024/02/14 04:21:34;;;;;;;;;7.00;6.50;;;;;;;;5080440;27;45223;-74
2024/02/14 04:23:59;;;;;;;;;9.25;8.00;;;;;;;;5080512;27;45274;-74
2024/02/14 04:26:24;;;;;;;;;7.33;7.33;;;;;;;;5080314;27;45287;-74
2024/02/14 04:28:49;;;;;;;;;7.50;6.00;;;;;;;;5079589;27;45657;-74
2024/02/14 04:31:15;;;;;;;;;7.67;7.00;;;;;;;;5079854;27;45562;-74
2024/02/14 04:33:41;;;;;;;;;8.00;7.50;;;;;;;;5080267;27;45301;-74
2024/02/14 04:36:06;;;;;;;;;7.25;6.25;;;;;;;;5075147;27;45579;-74
2024/02/14 04:38:32;;;;;;;;;7.75;7.75;;;;;;;;5079743;27;46226;-74
2024/02/14 04:40:58;;;;;;;;;6.00;6.00;;;;;;;;5079144;28;45369;-73
2024/02/14 04:43:23;;;;;;;;;7.00;7.00;;;;;;;;5079069;27;45318;-74
2024/02/14 04:45:48;;;;;;;;;8.00;8.00;;;;;;;;5079758;27;45480;-74
2024/02/14 04:48:13;;;;;;;;;8.33;8.33;;;;;;;;5079922;27;45751;-74
2024/02/14 04:50:39;;;;;;;;;8.00;8.00;;;;;;;;5077871;28;45530;-74
2024/02/14 04:53:04;;;;;;;;;6.25;6.25;;;;;;;;5079608;27;45887;-74
2024/02/14 04:55:29;;;;;;;;;9.25;9.25;;;;;;;;5079587;27;45480;-74
2024/02/14 04:57:54;;;;;;;;;7.67;7.67;;;;;;;;5077986;27;45494;-74
2024/02/14 05:00:20;;;;;;;;;6.00;6.00;;;;;;;;5086068;27;45397;-74
2024/02/14 05:02:45;;;;;;;;;11.50;8.00;;;;;;;;5079480;27;45463;-74
2024/02/14 05:05:10;;;;;;;;;11.00;10.00;;;;;;;;5079352;27;45491;-74
2024/02/14 05:07:35;;;;;;;;;8.67;8.67;;;;;;;;5079804;27;46161;-74
2024/02/14 05:10:00;;;;;;;;;8.25;8.25;;;;;;;;5079221;27;45557;-74
2024/02/14 05:12:26;;;;;;;;;11.33;10.67;;;;;;;;5072998;27;45917;-74
2024/02/14 05:14:51;;;;;;;;;13.00;9.00;;;;;;;;5079404;27;45754;-73
2024/02/14 05:17:16;;;;;;;;;7.00;7.00;;;;;;;;5078190;27;45421;-73
2024/02/14 05:19:42;;;;;;;;;13.67;11.33;;;;;;;;5079889;27;45460;-73
2024/02/14 05:22:07;;;;;;;;;10.50;8.25;;;;;;;;5079695;27;45362;-74
2024/02/14 05:24:33;;;;;;;;;12.00;11.25;;;;;;;;5079489;27;45606;-73
2024/02/14 05:26:58;;;;;;;;;7.25;7.25;;;;;;;;5078797;27;45958;-74
2024/02/14 05:29:23;;;;;;;;;7.00;7.00;;;;;;;;5081017;27;45638;-74
2024/02/14 05:31:48;;;;;;;;;12.33;11.33;;;;;;;;5082610;27;45446;-73
2024/02/14 05:34:14;;;;;;;;;9.25;9.25;;;;;;;;5078553;27;45595;-74
2024/02/14 05:36:39;;;;;;;;;9.50;8.00;;;;;;;;5076306;27;46576;-73
2024/02/14 05:39:05;;;;;;;;;11.67;11.00;;;;;;;;5078367;27;45326;-74
2024/02/14 05:41:32;;;;;;;;;11.00;10.25;;;;;;;;5075688;27;45393;-74
2024/02/14 05:43:57;;;;;;;;;8.75;8.75;;;;;;;;5076110;27;45422;-74
2024/02/14 05:46:23;;;;;;;;;10.67;7.67;;;;;;;;5078885;27;45592;-74
2024/02/14 05:48:48;;;;;;;;;10.67;9.00;;;;;;;;5079045;27;45622;-74
2024/02/14 05:51:13;;;;;;;;;8.67;7.33;;;;;;;;5079270;27;45480;-74
2024/02/14 05:53:38;;;;;;;;;8.75;8.25;;;;;;;;5078556;27;45469;-73
2024/02/14 05:56:03;;;;;;;;;6.00;5.00;;;;;;;;5074282;27;45672;-74
2024/02/14 05:58:29;;;;;;;;;8.00;8.00;;;;;;;;5080791;27;45406;-74
2024/02/14 06:00:55;;;;;;;;;12.00;12.00;;;;;;;;5080200;27;45521;-73
2024/02/14 06:03:20;;;;;;;;;13.50;10.75;;;;;;;;5078442;27;45533;-74
2024/02/14 06:05:45;;;;;;;;;9.33;9.33;;;;;;;;5078016;27;45417;-73
2024/02/14 06:08:10;;;;;;;;;12.00;6.00;;;;;;;;5076740;27;45509;-74
2024/02/14 06:10:38;;;;;;;;;8.00;7.50;;;;;;;;5074137;27;45618;-74
2024/02/14 06:13:03;;;;;;;;;16.50;14.25;;;;;;;;5076688;27;45491;-74
2024/02/14 06:15:29;;;;;;;;;17.67;13.00;;;;;;;;5077151;28;48329;-73
2024/02/14 06:17:54;;;;;;;;;13.00;11.33;;;;;;;;5078660;27;45383;-74
2024/02/14 06:20:19;;;;;;;;;12.67;12.00;;;;;;;;5078374;27;45462;-73
2024/02/14 06:22:44;;;;;;;;;15.33;12.33;;;;;;;;5078434;27;46080;-73
2024/02/14 06:25:09;;;;;;;;;9.67;9.00;;;;;;;;5078141;27;46318;-74
2024/02/14 06:27:35;;;;;;;;;13.00;11.67;;;;;;;;5076753;27;45370;-73
2024/02/14 06:30:00;;;;;;;;;12.67;12.00;;;;;;;;5079523;27;45385;-73
2024/02/14 06:32:25;;;;;;;;;12.67;12.00;;;;;;;;5076659;28;45323;-74
2024/02/14 06:34:50;;;;;;;;;11.67;11.33;;;;;;;;5073474;27;48245;-73
2024/02/14 06:37:16;;;;;;;;;12.75;11.25;;;;;;;;5077544;27;45350;-74
2024/02/14 06:39:41;;;;;;;;;14.00;12.00;;;;;;;;5074153;27;45479;-74
2024/02/14 06:42:06;;;;;;;;;11.67;11.67;;;;;;;;5079355;27;45255;-74
2024/02/14 06:44:31;;;;;;;;;12.67;12.00;;;;;;;;5076868;27;45479;-74
2024/02/14 06:46:56;;;;;;;;;13.00;12.67;;;;;;;;5077634;27;45410;-73
2024/02/14 06:49:21;;;;;;;;;16.00;15.33;;;;;;;;5078165;27;45592;-74
2024/02/14 06:51:47;;;;;;;;;13.67;12.00;;;;;;;;5077273;27;45645;-74
2024/02/14 06:54:17;;;;;;;;;15.00;13.33;;;;;;;;5078251;28;45308;-74
2024/02/14 06:56:42;;;;;;;;;12.50;11.25;;;;;;;;5075903;27;45414;-73
2024/02/14 06:59:07;;;;;;;;;11.67;11.67;;;;;;;;5075112;27;45393;-73
2024/02/14 07:01:32;;;;;;;;;15.33;14.33;;;;;;;;5077465;27;45639;-74
2024/02/14 07:03:58;;;;;;;;;11.00;11.00;;;;;;;;5078353;27;45363;-68
2024/02/14 07:06:23;;;;;;;;;12.50;12.00;;;;;;;;5076210;27;45490;-66
2024/02/14 07:08:48;;;;;;;;;13.00;12.33;;;;;;;;5071087;27;45353;-66
2024/02/14 07:11:15;;;;;;;;;11.00;11.00;;;;;;;;5067098;27;45353;-66
2024/02/14 07:13:40;;;;;;;;;13.75;11.00;;;;;;;;5062876;27;45487;-66
2024/02/14 07:16:05;;;;;;;;;12.00;12.00;;;;;;;;5081861;27;45401;-65
2024/02/14 07:18:30;;;;;;;;;11.33;11.33;;;;;;;;5092480;27;45328;-66
2024/02/14 07:20:56;;;;;;;;;14.00;13.67;;;;;;;;5082686;27;45300;-67
2024/02/14 07:23:21;;;;;;;;;10.67;10.67;;;;;;;;5074282;27;46587;-71
2024/02/14 07:25:46;;;;;;;;;10.33;10.33;;;;;;;;5069494;27;45347;-69
2024/02/14 07:28:12;;;;;;;;;9.00;8.25;;;;;;;;5077755;27;45324;-66
2024/02/14 07:30:37;;;;;;;;;14.50;13.75;;;;;;;;5067074;27;45743;-66
2024/02/14 07:33:02;;;;;;;;;14.67;13.00;;;;;;;;5072343;27;46008;-66
2024/02/14 07:35:28;;;;;;;;;15.50;13.75;;;;;;;;5074272;27;45520;-66
2024/02/14 07:37:53;;;;;;;;;12.75;9.00;;;;;;;;5084907;27;45470;-66
2024/02/14 07:40:19;;;;;;;;;14.00;12.33;;;;;;;;5075204;27;45435;-66
2024/02/14 07:42:44;;;;;;;;;12.00;12.00;;;;;;;;5079310;27;46930;-66
2024/02/14 07:45:09;;;;;;;;;13.00;13.00;;;;;;;;5075320;27;46065;-69
2024/02/14 07:47:35;;;;;;;;;10.25;9.75;;;;;;;;5076753;27;45444;-66
2024/02/14 07:50:00;;;;;;;;;12.67;12.67;;;;;;;;5079123;28;45493;-66
2024/02/14 07:52:25;;;;;;;;;12.75;12.00;;;;;;;;5078677;27;47453;-66
2024/02/14 07:54:54;;;;;;;;;12.75;9.25;;;;;;;;5067881;27;45524;-68
2024/02/14 07:57:20;;;;;;;;;11.75;11.75;;;;;;;;5071046;27;45322;-66
2024/02/14 07:59:45;;;;;;;;;10.75;10.75;;;;;;;;5082503;27;45254;-66
2024/02/14 08:02:10;;;;;;;;;11.33;10.00;;;;;;;;5101978;27;46016;-66
2024/02/14 08:04:35;;;;;;;;;13.33;12.00;;;;;;;;5078300;27;45513;-66
2024/02/14 08:07:00;;;;;;;;;13.00;10.00;;;;;;;;5066909;27;45626;-67
2024/02/14 08:09:26;;;;;;;;;13.67;12.00;;;;;;;;5067334;27;45517;-67
2024/02/14 08:11:53;;;;;;;;;12.67;10.00;;;;;;;;5080515;27;45661;-67
2024/02/14 08:14:18;;;;;;;;;10.25;10.25;;;;;;;;5072829;27;45519;-67
2024/02/14 08:16:43;;;;;;;;;12.33;10.67;;;;;;;;5081788;27;45449;-67
2024/02/14 08:19:08;;;;;;;;;13.00;12.00;;;;;;;;5073910;27;46403;-67
2024/02/14 08:21:33;;;;;;;;;11.33;11.33;;;;;;;;5081422;27;46605;-67
2024/02/14 08:23:59;;;;;;;;;16.50;11.75;;;;;;;;5076364;27;45556;-67
2024/02/14 08:26:24;;;;;;;;;13.00;12.00;;;;;;;;5072226;27;45542;-67
2024/02/14 08:28:49;;;;;;;;;8.33;8.33;;;;;;;;5067514;27;45584;-72
2024/02/14 08:31:15;;;;;;;;;12.00;11.25;;;;;;;;5067283;27;47473;-72
2024/02/14 08:33:40;;;;;;;;;11.00;9.00;;;;;;;;5066814;27;47094;-72
2024/02/14 08:36:06;;;;;;;;;13.33;12.33;;;;;;;;5068381;27;45531;-72
2024/02/14 08:38:32;;;;;;;;;10.25;8.50;;;;;;;;5077285;27;45479;-72
2024/02/14 08:40:57;;;;;;;;;10.75;9.25;;;;;;;;5068429;27;45724;-73
2024/02/14 08:43:24;;;;;;;;;13.33;13.33;;;;;;;;5069893;27;45453;-72
2024/02/14 08:45:51;;;;;;;;;12.75;10.75;;;;;;;;5075221;27;45492;-72
2024/02/14 08:48:16;;;;;;;;;12.00;9.00;;;;;;;;5077916;27;45456;-72
2024/02/14 08:50:42;;;;;;;;;7.67;7.67;;;;;;;;5072033;27;45846;-72
2024/02/14 08:53:07;;;;;;;;;9.25;8.75;;;;;;;;5074080;27;45344;-72
2024/02/14 08:55:33;;;;;;;;;9.00;9.00;;;;;;;;5074709;27;45426;-79
2024/02/14 08:57:58;;;;;;;;;8.50;7.00;;;;;;;;5079808;27;46987;-76
2024/02/14 09:00:23;;;;;;;;;9.00;9.00;;;;;;;;5076547;27;45558;-73
2024/02/14 09:02:48;;;;;;;;;5.67;5.67;;;;;;;;5066934;27;45557;-68
2024/02/14 09:05:14;;;;;;;;;8.00;8.00;;;;;;;;5075017;27;45504;-69
2024/02/14 09:07:41;;;;;;;;;7.75;7.00;;;;;;;;5070934;27;45605;-69
2024/02/14 09:10:06;;;;;;;;;8.50;7.00;;;;;;;;5066431;27;46224;-69
2024/02/14 09:12:33;;;;;;;;;7.00;6.00;;;;;;;;5072148;27;45794;-69
2024/02/14 09:14:59;;;;;;;;;7.00;5.75;;;;;;;;5068192;27;45746;-69
2024/02/14 09:17:24;;;;;;;;;8.25;7.00;;;;;;;;5075180;27;45726;-70
2024/02/14 09:19:49;;;;;;;;;6.00;6.00;;;;;;;;5075553;27;46936;-70
2024/02/14 09:22:20;;;;;;;;;6.00;6.00;;;;;;;;5081775;27;45501;-67
2024/02/14 09:24:46;;;;;;;;;7.00;7.00;;;;;;;;5084722;27;45688;-69
2024/02/14 09:27:11;;;;;;;;;6.33;6.00;;;;;;;;5090979;27;45461;-69
2024/02/14 09:29:38;;;;;;;;;5.33;5.33;;;;;;;;5073846;27;45677;-69
2024/02/14 09:32:03;;;;;;;;;6.25;6.00;;;;;;;;5081252;27;45389;-69
2024/02/14 09:34:28;;;;;;;;;4.25;4.25;;;;;;;;5075425;27;45416;-69
2024/02/14 09:36:53;;;;;;;;;5.00;5.00;;;;;;;;5082372;27;45525;-69
2024/02/14 09:39:19;;;;;;;;;7.50;6.50;;;;;;;;5077661;27;45519;-69
2024/02/14 09:41:46;;;;;;;;;5.00;5.00;;;;;;;;5077022;27;45381;-69
2024/02/14 09:44:12;;;;;;;;;5.25;5.25;;;;;;;;5073172;27;45465;-69
2024/02/14 09:46:37;;;;;;;;;7.00;6.50;;;;;;;;5078271;27;45386;-69
2024/02/14 09:49:03;;;;;;;;;6.75;6.50;;;;;;;;5084824;27;46274;-69
2024/02/14 09:51:29;;;;;;;;;5.00;5.00;;;;;;;;5075340;27;45287;-69
2024/02/14 09:53:54;;;;;;;;;5.00;5.00;;;;;;;;5077478;27;45925;-69
2024/02/14 09:56:22;;;;;;;;;11.50;10.50;;;;;;;;5078720;28;45409;-70
2024/02/14 09:58:55;;;;;;;;;8.25;6.00;;;;;;;;5078987;27;47291;-72
2024/02/14 10:01:23;;;;;;;;;7.00;7.00;;;;;;;;5085818;27;45548;-72
2024/02/14 10:03:49;;;;;;;;;6.00;6.00;;;;;;;;5078425;27;45425;-73
2024/02/14 10:06:14;;;;;;;;;6.25;6.25;;;;;;;;5066899;27;45520;-74
2024/02/14 10:08:40;;;;;;;;;7.75;7.75;;;;;;;;5074365;27;45381;-73
2024/02/14 10:11:06;;;;;;;;;9.75;7.75;;;;;;;;5078601;28;45360;-74
2024/02/14 10:13:31;;;;;;;;;13.50;10.75;;;;;;;;5077277;27;45438;-72
2024/02/14 10:15:58;;;;;;;;;10.00;8.00;;;;;;;;5076723;27;45501;-74
2024/02/14 10:18:23;;;;;;;;;8.50;8.00;;;;;;;;5077867;27;45552;-73
2024/02/14 10:20:55;;;;;;;;;9.25;8.25;;;;;;;;5078074;28;45665;-74
2024/02/14 10:23:20;;;;;;;;;16.75;15.25;;;;;;;;5077662;27;45468;-74
2024/02/14 10:25:45;;;;;;;;;11.00;10.00;;;;;;;;5078442;27;45302;-82
2024/02/14 10:28:10;;;;;;;;;11.50;9.75;;;;;;;;5077987;27;46514;-72
2024/02/14 10:30:38;;;;;;;;;9.33;9.00;;;;;;;;5078870;27;45572;-72
2024/02/14 10:33:03;;;;;;;;;11.25;10.50;;;;;;;;5078758;27;45308;-72
2024/02/14 10:35:30;;;;;;;;;14.50;10.25;;;;;;;;5074776;27;45432;-67
2024/02/14 10:38:00;;;;;;;;;7.50;7.00;;;;;;;;5077363;27;46364;-70
2024/02/14 10:40:27;;;;;;;;;8.75;8.75;;;;;;;;5081504;27;45520;-78
2024/02/14 10:42:54;;;;;;;;;8.75;8.25;;;;;;;;5077790;27;45254;-77
2024/02/14 10:45:19;;;;;;;;;8.00;8.00;;;;;;;;5072741;27;45601;-77
2024/02/14 10:47:48;;;;;;;;;8.50;8.50;;;;;;;;5068971;27;46374;-75
2024/02/14 10:50:14;;;;;;;;;10.50;9.00;;;;;;;;5072383;27;45736;-80
2024/02/14 10:52:40;;;;;;;;;12.50;9.00;;;;;;;;5079402;27;45345;-75
2024/02/14 10:55:06;;;;;;;;;10.75;9.25;;;;;;;;5089994;27;45353;-75
2024/02/14 10:57:34;;;;;;;;;9.00;9.00;;;;;;;;5084360;27;46290;-74
2024/02/14 11:00:01;;;;;;;;;7.50;7.50;;;;;;;;5077110;27;45403;-75
2024/02/14 11:02:30;;;;;;;;;11.25;9.75;;;;;;;;5071418;27;45527;-74
2024/02/14 11:04:55;;;;;;;;;11.00;8.25;;;;;;;;5072634;27;45578;-75
2024/02/14 11:07:22;;;;;;;;;9.75;9.00;;;;;;;;5077648;27;46132;-72
2024/02/14 11:09:48;;;;;;;;;4.25;4.25;;;;;;;;5077297;27;45606;-74
2024/02/14 11:12:14;;;;;;;;;7.00;6.00;;;;;;;;5069323;27;45334;-76
2024/02/14 11:14:42;;;;;;;;;8.00;7.25;;;;;;;;5076696;27;45457;-74
2024/02/14 11:17:10;;;;;;;;;7.50;7.25;;;;;;;;5077761;27;46155;-76
2024/02/14 11:19:38;;;;;;;;;10.25;7.00;;;;;;;;5070997;27;45779;-75
2024/02/14 11:22:11;;;;;;;;;11.00;6.00;;;;;;;;5068877;27;45376;-75
2024/02/14 11:24:36;;;;;;;;;10.50;8.75;;;;;;;;5058625;27;45505;-74
2024/02/14 11:27:02;;;;;;;;;7.67;7.67;;;;;;;;5071880;27;45669;-75
2024/02/14 11:29:30;;;;;;;;;8.75;7.50;;;;;;;;5074612;27;45265;-75
2024/02/14 11:32:02;;;;;;;;;7.00;6.00;;;;;;;;5067235;27;45340;-75
2024/02/14 11:34:28;;;;;;;;;7.00;6.50;;;;;;;;5075740;28;45358;-75
2024/02/14 11:36:53;;;;;;;;;7.75;6.00;;;;;;;;5062263;27;46078;-75
2024/02/14 11:39:20;;;;;;;;;7.50;7.50;;;;;;;;5074012;27;45533;-75
2024/02/14 11:41:45;;;;;;;;;6.00;6.00;;;;;;;;5064875;27;45409;-75
2024/02/14 11:44:11;;;;;;;;;5.00;5.00;;;;;;;;5068059;28;45399;-75
2024/02/14 11:46:37;;;;;;;;;5.25;5.00;;;;;;;;5057709;27;45449;-75
2024/02/14 11:49:03;;;;;;;;;6.00;6.00;;;;;;;;5076920;28;45337;-75
2024/02/14 11:51:29;;;;;;;;;3.00;3.00;;;;;;;;5072908;27;45468;-75
2024/02/14 11:53:54;;;;;;;;;5.50;5.00;;;;;;;;5074491;27;45535;-72
2024/02/14 11:56:21;;;;;;;;;4.75;4.75;;;;;;;;5072269;27;45345;-73
2024/02/14 11:58:48;;;;;;;;;4.00;4.00;;;;;;;;5057504;27;45535;-73
2024/02/14 12:01:13;;;;;;;;;8.00;5.00;;;;;;;;5072916;27;45321;-73
2024/02/14 12:03:39;;;;;;;;;5.00;5.00;;;;;;;;5061152;27;45480;-73
2024/02/14 12:06:05;;;;;;;;;2.75;2.75;;;;;;;;5076295;27;46322;-73
2024/02/14 12:08:31;;;;;;;;;5.50;5.50;;;;;;;;5078901;27;46390;-73
2024/02/14 12:10:56;;;;;;;;;5.00;4.00;;;;;;;;5070092;27;45857;-73
2024/02/14 12:13:21;;;;;;;;;6.00;6.00;;;;;;;;5078176;27;45463;-73
2024/02/14 12:15:47;;;;;;;;;6.00;5.33;;;;;;;;5072192;27;45422;-73
2024/02/14 12:18:15;;;;;;;;;6.25;6.00;;;;;;;;5072626;27;45528;-73
2024/02/14 12:20:41;;;;;;;;;8.00;6.25;;;;;;;;5079362;27;46877;-73
2024/02/14 12:23:06;;;;;;;;;6.00;5.00;;;;;;;;5072504;27;46287;-65
2024/02/14 12:25:32;;;;;;;;;7.00;5.00;;;;;;;;5078302;27;45391;-65
2024/02/14 12:27:58;;;;;;;;;8.25;7.75;;;;;;;;5078237;27;45512;-65
2024/02/14 12:30:28;;;;;;;;;6.50;6.50;;;;;;;;5074629;27;45676;-65
2024/02/14 12:33:01;;;;;;;;;7.00;6.00;;;;;;;;5074986;27;45563;-65
2024/02/14 12:35:26;;;;;;;;;8.50;7.50;;;;;;;;5072262;27;45607;-65
2024/02/14 12:37:53;;;;;;;;;6.00;5.50;;;;;;;;5079710;27;45435;-65
2024/02/14 12:40:20;;;;;;;;;8.00;7.00;;;;;;;;5078966;27;45482;-65
2024/02/14 12:42:45;;;;;;;;;8.00;6.25;;;;;;;;5086566;27;45326;-65
2024/02/14 12:45:10;;;;;;;;;5.50;4.00;;;;;;;;5079146;27;47126;-65
2024/02/14 12:47:35;;;;;;;;;7.33;6.00;;;;;;;;5078409;27;45323;-72
2024/02/14 12:50:00;;;;;;;;;6.33;5.33;;;;;;;;5077082;27;45668;-73
2024/02/14 12:52:26;;;;;;;;;6.75;6.75;;;;;;;;5086194;27;45442;-73
2024/02/14 12:54:51;;;;;;;;;8.00;5.75;;;;;;;;5075628;27;45329;-73
2024/02/14 12:57:16;;;;;;;;;6.25;5.50;;;;;;;;5078869;27;45298;-73
2024/02/14 12:59:41;;;;;;;;;4.67;3.33;;;;;;;;5080373;27;45439;-73
2024/02/14 13:02:07;;;;;;;;;9.67;6.67;;;;;;;;5069183;27;45469;-74
2024/02/14 13:04:32;;;;;;;;;5.67;5.00;;;;;;;;5086667;27;46203;-72
2024/02/14 13:06:57;;;;;;;;;7.50;5.25;;;;;;;;5068816;27;45462;-73
2024/02/14 13:09:22;;;;;;;;;5.75;5.00;;;;;;;;5062268;28;45378;-73
2024/02/14 13:11:48;;;;;;;;;6.00;6.00;;;;;;;;5059841;28;45424;-73
2024/02/14 13:14:14;;;;;;;;;6.00;5.00;;;;;;;;5079099;27;45358;-73
2024/02/14 13:16:40;;;;;;;;;9.25;6.25;;;;;;;;5078709;27;45449;-73
2024/02/14 13:19:05;;;;;;;;;9.00;6.00;;;;;;;;5079084;27;45422;-73
2024/02/14 13:21:30;;;;;;;;;6.00;6.00;;;;;;;;5076497;27;45880;-72
2024/02/14 13:23:57;;;;;;;;;8.33;5.00;;;;;;;;5064338;27;46118;-73
2024/02/14 13:26:22;;;;;;;;;5.50;4.75;;;;;;;;5076918;27;45453;-72
2024/02/14 13:28:47;;;;;;;;;7.00;5.00;;;;;;;;5077046;27;45365;-72
2024/02/14 13:31:12;;;;;;;;;6.67;6.67;;;;;;;;5070191;27;45776;-73
2024/02/14 13:33:37;;;;;;;;;4.67;4.00;;;;;;;;5082268;27;46113;-73
2024/02/14 13:36:03;;;;;;;;;7.00;5.00;;;;;;;;5077563;27;45990;-72
2024/02/14 13:38:28;;;;;;;;;5.00;4.50;;;;;;;;5078476;27;45886;-72
2024/02/14 13:40:54;;;;;;;;;7.25;4.50;;;;;;;;5071444;27;45442;-73
2024/02/14 13:43:19;;;;;;;;;4.67;4.67;;;;;;;;5077535;27;45790;-73
2024/02/14 13:45:45;;;;;;;;;7.00;4.67;;;;;;;;5080933;27;45813;-73
2024/02/14 13:48:10;;;;;;;;;5.25;4.75;;;;;;;;5078367;27;45362;-72
2024/02/14 13:50:36;;;;;;;;;7.25;5.50;;;;;;;;5076467;27;45296;-72
2024/02/14 13:53:01;;;;;;;;;3.00;3.00;;;;;;;;5076999;27;45388;-72
2024/02/14 13:55:26;;;;;;;;;6.00;3.67;;;;;;;;5074633;27;45462;-72
2024/02/14 13:57:52;;;;;;;;;4.75;3.75;;;;;;;;5077034;27;45534;-72
2024/02/14 14:00:17;;;;;;;;;3.75;3.75;;;;;;;;5074221;27;45437;-72
2024/02/14 14:02:43;;;;;;;;;7.00;5.00;;;;;;;;5072870;27;46112;-72
2024/02/14 14:05:09;;;;;;;;;6.50;4.25;;;;;;;;5083329;27;45562;-72
2024/02/14 14:07:36;;;;;;;;;5.00;2.25;;;;;;;;5078276;27;45399;-73
2024/02/14 14:10:01;;;;;;;;;5.00;4.75;;;;;;;;5074615;27;45533;-72
2024/02/14 14:12:26;;;;;;;;;5.25;5.00;;;;;;;;5070360;27;45354;-72
2024/02/14 14:14:51;;;;;;;;;6.00;3.00;;;;;;;;5086842;27;45647;-72
2024/02/14 14:17:17;;;;;;;;;4.00;4.00;;;;;;;;5094563;27;45400;-73
2024/02/14 14:19:42;;;;;;;;;4.33;4.33;;;;;;;;5080936;27;45471;-72
2024/02/14 14:22:07;;;;;;;;;5.33;5.00;;;;;;;;5073822;27;45638;-72
2024/02/14 14:24:32;;;;;;;;;5.67;5.00;;;;;;;;5068547;27;45854;-72
2024/02/14 14:26:57;;;;;;;;;4.00;4.00;;;;;;;;5072392;27;46386;-72